SloveniaFixed distance
Slowenischer Alpen Marathon SAM
13 Sep2008
Distance
50km
Finishers
6458 men6 women
Winning time
4:42:01h
Median pace
8.10km/h
Pace distribution
64 finishers · 5.84–10.64 km/h · mean 8.19
Every finisher ran the same 50 km course, so these paces are directly comparable.
Histogram of finisher pace. 64 finishers ranged from 5.84 to 10.64 kilometres per hour, with a mean of 8.19 and a median of 8.10. The busiest band is 8.0 to 8.5 kilometres per hour, with 13 finishers.
Results
Ranks 1–50 of 64
| Rank | Runner | Time | Pace | Cat. | Placing |
|---|---|---|---|---|---|
| 1 | LG Südkärnten | 4:42:01h | 10.64 | M40 | 1st M · 1st M40 |
| 2 | ŠD Kranjska Gora | 4:50:15h | 10.34 | M23 | 2nd M · 1st M23 |
| 3 | Team Croatia | 4:50:47h | 10.32 | M23 | 3rd M · 2nd M23 |
| 4 | LLC - Suetschach | 4:51:33h | 10.29 | M35 | 4th M · 1st M35 |
| 5 | Graparski kerlci | 5:03:04h | 9.90 | M40 | 5th M · 2nd M40 |
| 6 | TK Triron | 5:03:48h | 9.88 | M23 | 6th M · 3rd M23 |
| 7 | OŠ Stražišce | 5:04:27h | 9.85 | M50 | 7th M · 1st M50 |
| 8 | Foto Boni | 5:11:27h | 9.63 | M40 | 8th M · 3rd M40 |
| 9 | Vitezi dobrega teka | 5:19:39h | 9.38 | M23 | 9th M · 4th M23 |
| 10 | 5:24:14h | 9.25 | M23 | 10th M · 5th M23 | |
| 11 | ŠD Stanko Lorger | 5:28:30h | 9.13 | M23 | 11th M · 6th M23 |
| 12 | Stockholm Trail Runners | 5:28:43h | 9.13 | M40 | 12th M · 4th M40 |
| 13 | 5:30:16h | 9.08 | MU23 | 13th M · 1st MU23 | |
| 14 | 5:30:45h | 9.07 | M23 | 14th M · 7th M23 | |
| 15 | AK Sljeme | 5:33:04h | 9.01 | M23 | 15th M · 8th M23 |
| 16 | 5:40:57h | 8.80 | M40 | 16th M · 5th M40 | |
| 17 | 5:42:47h | 8.75 | M45 | 17th M · 1st M45 | |
| 18 | 5:45:37h | 8.68 | M35 | 18th M · 2nd M35 | |
| 19 | Filipides | 5:45:49h | 8.68 | M50 | 19th M · 2nd M50 |
| 20 | Mici je zakon | 5:46:11h | 8.67 | M45 | 20th M · 2nd M45 |
| 21 | Tekaški forum | 5:46:27h | 8.66 | M45 | 21st M · 3rd M45 |
| 22 | TK Tržiške strele | 5:49:27h | 8.59 | M55 | 22nd M · 1st M55 |
| 23 | Telekom Slovenije | 5:52:02h | 8.52 | M40 | 23rd M · 6th M40 |
| 24 | 5:52:18h | 8.52 | M40 | 24th M · 7th M40 | |
| 25 | TK Šmarnogorska naveza | 5:54:09h | 8.47 | M45 | 25th M · 4th M45 |
| 26 | Tekaški forum | 5:57:21h | 8.39 | M23 | 26th M · 9th M23 |
| 27 | 6:03:48h | 8.25 | M23 | 27th M · 10th M23 | |
| 28 | Vitezi dobrega teka | 6:06:02h | 8.20 | M23 | 28th M · 11th M23 |
| 29 | Tekaški forum Prekmurje | 6:06:19h | 8.19 | M23 | 29th M · 12th M23 |
| 30 | Vitezi dobrega teka | 6:07:31h | 8.16 | M23 | 30th M · 13th M23 |
| 31 | ŠD Hitre noge Senožece | 6:08:23h | 8.14 | M23 | 31st M · 14th M23 |
| 32 | ŠD Hitre noge Senožece | 6:10:01h | 8.11 | M40 | 32nd M · 8th M40 |
| 33 | Road Runners Club | 6:10:24h | 8.10 | M60 | 33rd M · 1st M60 |
| 34 | 100 Marathon Club | 6:10:45h | 8.09 | M40 | 34th M · 9th M40 |
| 35 | ŠRD Calcit | 6:11:37h | 8.07 | M50 | 35th M · 3rd M50 |
| 36 | Tekaški forum | 6:12:29h | 8.05 | M35 | 36th M · 3rd M35 |
| 37 | Hranilnica Lon Kranj | 6:12:29h | 8.05 | M45 | 36th M · 5th M45 |
| 38 | Klub Trmastih Preddvor | 6:16:21h | 7.97 | M50 | 38th M · 4th M50 |
| 39 | Actionseekers | 6:18:06h | 7.93 | M23 | 39th M · 15th M23 |
| 40 | Tminski migavci | 6:22:44h | 7.84 | W45 | 1st F · 1st W45 |
| 41 | Sljeme | 6:27:43h | 7.74 | M23 | 40th M · 16th M23 |
| 42 | 6:32:22h | 7.65 | W40 | 2nd F · 1st W40 | |
| 43 | AC Moosburg | 6:34:53h | 7.60 | M60 | 41st M · 2nd M60 |
| 44 | 6:37:00h | 7.56 | M23 | 42nd M · 17th M23 | |
| 45 | Sljeme | 6:37:00h | 7.56 | M35 | 42nd M · 4th M35 |
| 46 | Koroški maratonci | 6:41:10h | 7.48 | M40 | 44th M · 10th M40 |
| 47 | MTB Koroška | 6:41:11h | 7.48 | W35 | 3rd F · 1st W35 |
| 48 | DMP Celje | 6:44:55h | 7.41 | M45 | 45th M · 6th M45 |
| 49 | X2S TEAM-YA | 6:46:00h | 7.39 | M45 | 46th M · 7th M45 |
| 50 | 6:46:11h | 7.39 | W23 | 4th F · 1st W23 |
- 1LG Südkärnten1st M · 1st M40Time4:42:01hPace10.64Cat.M40
- 2ŠD Kranjska Gora2nd M · 1st M23Time4:50:15hPace10.34Cat.M23
- 3Team Croatia3rd M · 2nd M23Time4:50:47hPace10.32Cat.M23
- 4LLC - Suetschach4th M · 1st M35Time4:51:33hPace10.29Cat.M35
- 5Graparski kerlci5th M · 2nd M40Time5:03:04hPace9.90Cat.M40
- 6TK Triron6th M · 3rd M23Time5:03:48hPace9.88Cat.M23
- 7OŠ Stražišce7th M · 1st M50Time5:04:27hPace9.85Cat.M50
- 8Foto Boni8th M · 3rd M40Time5:11:27hPace9.63Cat.M40
- 9Vitezi dobrega teka9th M · 4th M23Time5:19:39hPace9.38Cat.M23
- 1010th M · 5th M23Time5:24:14hPace9.25Cat.M23
- 11ŠD Stanko Lorger11th M · 6th M23Time5:28:30hPace9.13Cat.M23
- 12Stockholm Trail Runners12th M · 4th M40Time5:28:43hPace9.13Cat.M40
- 1313th M · 1st MU23Time5:30:16hPace9.08Cat.MU23
- 1414th M · 7th M23Time5:30:45hPace9.07Cat.M23
- 15AK Sljeme15th M · 8th M23Time5:33:04hPace9.01Cat.M23
- 1616th M · 5th M40Time5:40:57hPace8.80Cat.M40
- 1717th M · 1st M45Time5:42:47hPace8.75Cat.M45
- 1818th M · 2nd M35Time5:45:37hPace8.68Cat.M35
- 19Filipides19th M · 2nd M50Time5:45:49hPace8.68Cat.M50
- 20Mici je zakon20th M · 2nd M45Time5:46:11hPace8.67Cat.M45
- 21Tekaški forum21st M · 3rd M45Time5:46:27hPace8.66Cat.M45
- 22TK Tržiške strele22nd M · 1st M55Time5:49:27hPace8.59Cat.M55
- 23Telekom Slovenije23rd M · 6th M40Time5:52:02hPace8.52Cat.M40
- 2424th M · 7th M40Time5:52:18hPace8.52Cat.M40
- 25TK Šmarnogorska naveza25th M · 4th M45Time5:54:09hPace8.47Cat.M45
- 26Tekaški forum26th M · 9th M23Time5:57:21hPace8.39Cat.M23
- 2727th M · 10th M23Time6:03:48hPace8.25Cat.M23
- 28Vitezi dobrega teka28th M · 11th M23Time6:06:02hPace8.20Cat.M23
- 29Tekaški forum Prekmurje29th M · 12th M23Time6:06:19hPace8.19Cat.M23
- 30Vitezi dobrega teka30th M · 13th M23Time6:07:31hPace8.16Cat.M23
- 31ŠD Hitre noge Senožece31st M · 14th M23Time6:08:23hPace8.14Cat.M23
- 32ŠD Hitre noge Senožece32nd M · 8th M40Time6:10:01hPace8.11Cat.M40
- 33Road Runners Club33rd M · 1st M60Time6:10:24hPace8.10Cat.M60
- 34100 Marathon Club34th M · 9th M40Time6:10:45hPace8.09Cat.M40
- 35ŠRD Calcit35th M · 3rd M50Time6:11:37hPace8.07Cat.M50
- 36Tekaški forum36th M · 3rd M35Time6:12:29hPace8.05Cat.M35
- 37Hranilnica Lon Kranj36th M · 5th M45Time6:12:29hPace8.05Cat.M45
- 38Klub Trmastih Preddvor38th M · 4th M50Time6:16:21hPace7.97Cat.M50
- 39Actionseekers39th M · 15th M23Time6:18:06hPace7.93Cat.M23
- 40Tminski migavci1st F · 1st W45Time6:22:44hPace7.84Cat.W45
- 41Sljeme40th M · 16th M23Time6:27:43hPace7.74Cat.M23
- 422nd F · 1st W40Time6:32:22hPace7.65Cat.W40
- 43AC Moosburg41st M · 2nd M60Time6:34:53hPace7.60Cat.M60
- 4442nd M · 17th M23Time6:37:00hPace7.56Cat.M23
- 45Sljeme42nd M · 4th M35Time6:37:00hPace7.56Cat.M35
- 46Koroški maratonci44th M · 10th M40Time6:41:10hPace7.48Cat.M40
- 47MTB Koroška3rd F · 1st W35Time6:41:11hPace7.48Cat.W35
- 48DMP Celje45th M · 6th M45Time6:44:55hPace7.41Cat.M45
- 49X2S TEAM-YA46th M · 7th M45Time6:46:00hPace7.39Cat.M45
- 504th F · 1st W23Time6:46:11hPace7.39Cat.W23
Showing ranks 1–50 of 64